Time;durP1;ratioP1;P1;durP2;ratioP2;P2;SDS_P1;SDS_P2;PMS_P1;PMS_P2;Temp;Humidity;BMP_temperature;BMP_pressure;BME280_temperature;BME280_humidity;BME280_pressure;Samples;Min_cycle;Max_cycle;Signal;HPM_P1;HPM_P2
2022/11/20 00:00:56;;;;;;;;;1.00;1.00;;;;;21.52;54.85;100799.75;146602;591;46020;-84
2022/11/20 00:03:54;;;;;;;;;3.00;3.00;;;;;21.49;55.38;100797.09;146602;623;47012;-83
2022/11/20 00:06:46;;;;;;;;;5.00;2.33;;;;;21.49;55.59;100803.25;146608;602;46020;-83
2022/11/20 00:09:49;;;;;;;;;3.00;2.00;;;;;21.49;55.46;100792.69;146599;607;47014;-83
2022/11/20 00:12:47;;;;;;;;;3.67;2.00;;;;;21.49;55.75;100795.31;146606;572;47011;-82
2022/11/20 00:15:51;;;;;;;;;3.33;3.33;;;;;21.49;55.67;100797.09;146603;569;46016;-78
2022/11/20 00:18:52;;;;;;;;;2.00;2.00;;;;;21.45;55.74;100789.16;146601;589;46021;-82
2022/11/20 00:21:57;;;;;;;;;1.33;1.33;;;;;21.45;55.69;100802.34;146605;607;47012;-81
2022/11/20 00:24:54;;;;;;;;;2.67;1.67;;;;;21.40;56.36;100797.88;146603;640;47010;-79
2022/11/20 00:27:55;;;;;;;;;1.33;1.33;;;;;21.38;56.45;100799.66;146600;629;47013;-81
2022/11/20 00:30:56;;;;;;;;;1.67;1.00;;;;;21.35;56.47;100792.59;146615;587;46020;-76
2022/11/20 00:33:56;;;;;;;;;2.67;2.00;;;;;21.35;56.58;100792.59;146614;622;46017;-79
2022/11/20 00:37:00;;;;;;;;;3.00;2.00;;;;;21.34;56.48;100800.44;146618;575;47010;-81
2022/11/20 00:39:54;;;;;;;;;1.00;1.00;;;;;21.32;56.61;100795.16;146609;603;46016;-76
2022/11/20 00:42:56;;;;;;;;;2.33;2.33;;;;;21.31;56.31;100796.06;146620;597;46021;-73
2022/11/20 00:46:03;;;;;;;;;1.33;1.00;;;;;18.82;57.34;100367.91;146612;593;46016;-79
2022/11/20 00:49:17;;;;;;;;;;;;;;;;;;;;;
2022/11/20 00:52:14;;;;;;;;;2.00;2.00;;;;;21.23;57.88;100789.81;146615;607;46034;-76
2022/11/20 00:55:12;;;;;;;;;1.67;1.67;;;;;21.20;57.59;100785.41;146619;599;46020;-76
2022/11/20 00:58:08;;;;;;;;;5.00;3.00;;;;;21.16;58.32;100788.88;146612;608;47012;-77
2022/11/20 01:01:40;;;;;;;;;4.33;3.00;;;;;21.13;57.60;100796.75;146620;663;46020;-82
2022/11/20 01:04:37;;;;;;;;;3.67;2.00;;;;;21.13;57.76;100790.63;146610;606;46016;-78
2022/11/20 01:07:30;;;;;;;;;4.00;1.67;;;;;21.12;58.23;100783.56;146619;641;46020;-77
2022/11/20 01:10:24;;;;;;;;;2.00;2.00;;;;;21.10;58.98;100780.03;146612;564;46017;-83
2022/11/20 01:13:38;;;;;;;;;3.00;2.33;;;;;21.07;58.81;100799.34;146616;639;47010;-78
2022/11/20 01:16:40;;;;;;;;;2.00;2.00;;;;;21.03;58.83;100797.56;146613;664;47012;-75
2022/11/20 01:19:32;;;;;;;;;4.00;2.67;;;;;21.03;58.88;100789.66;146616;579;47010;-74
2022/11/20 01:22:28;;;;;;;;;2.00;2.00;;;;;19.89;59.25;100594.41;146614;591;47012;-76
2022/11/20 01:25:40;;;;;;;;;3.67;3.33;;;;;18.75;58.24;100406.31;146617;627;47010;-75
2022/11/20 01:28:50;;;;;;;;;3.00;2.33;;;;;21.03;59.94;100800.19;146617;593;46917;-76
2022/11/20 01:31:48;;;;;;;;;4.00;4.00;;;;;20.98;60.20;100800.13;146605;589;47010;-77
2022/11/20 01:34:46;;;;;;;;;3.00;3.00;;;;;20.95;60.54;100804.50;146604;577;46016;-76
2022/11/20 01:37:56;;;;;;;;;5.33;4.00;;;;;20.89;60.96;100794.75;146607;631;46020;-76
2022/11/20 01:40:58;;;;;;;;;4.67;3.67;;;;;19.76;60.16;100602.16;146604;634;46014;-76
2022/11/20 01:43:56;;;;;;;;;3.67;3.00;;;;;19.75;60.93;100603.03;146608;579;46020;-75
2022/11/20 01:47:08;;;;;;;;;4.33;4.00;;;;;20.82;62.21;100802.59;146606;597;46017;-75
2022/11/20 01:50:28;;;;;;;;;5.00;4.00;;;;;20.76;61.98;100784.97;146603;576;46010;-76
2022/11/20 01:53:36;;;;;;;;;5.33;4.33;;;;;20.73;63.14;100772.66;146603;590;46017;-77
2022/11/20 01:56:38;;;;;;;;;4.00;4.00;;;;;20.68;63.68;100765.56;146604;633;47010;-76
2022/11/20 01:59:38;;;;;;;;;4.67;4.00;;;;;20.66;62.77;100754.12;146603;638;47016;-77
2022/11/20 02:02:37;;;;;;;;;4.67;4.00;;;;;20.65;63.59;100754.97;146608;638;47012;-75
2022/11/20 02:05:57;;;;;;;;;4.00;4.00;;;;;20.64;64.06;100745.31;146605;611;46035;-78
2022/11/20 02:09:11;;;;;;;;;;;;;;;;;;;;;
2022/11/20 02:13:42;;;;;;;;;3.00;3.00;;;;;20.58;64.78;100747.88;146602;625;46915;-77
2022/11/20 02:15:36;;;;;;;;;3.67;3.67;;;;;20.58;64.09;100743.50;146605;575;47010;-76
2022/11/20 02:18:28;;;;;;;;;5.00;4.00;;;;;19.56;64.43;100572.03;146604;582;46016;-77
2022/11/20 02:21:59;;;;;;;;;6.33;4.67;;;;;20.57;64.02;100743.50;146606;574;46020;-73
2022/11/20 02:25:03;;;;;;;;;7.00;5.33;;;;;20.53;65.12;100727.66;146605;582;47013;-76
2022/11/20 02:27:56;;;;;;;;;5.00;5.00;;;;;20.56;63.46;100747.88;146606;564;46020;-73
2022/11/20 02:30:49;;;;;;;;;9.33;6.67;;;;;19.47;64.81;100553.53;146610;636;46012;-76
2022/11/20 02:33:59;;;;;;;;;6.00;5.00;;;;;20.60;64.81;100744.41;146619;654;46021;-73
2022/11/20 02:36:59;;;;;;;;;6.67;6.33;;;;;20.62;63.90;100755.81;146613;582;47012;-75
2022/11/20 02:40:01;;;;;;;;;5.33;4.67;;;;;20.61;64.57;100754.06;146617;649;46028;-79
2022/11/20 02:42:58;;;;;;;;;4.00;4.00;;;;;20.56;66.09;100766.31;146613;577;46016;-73
2022/11/20 02:46:04;;;;;;;;;4.67;4.67;;;;;20.59;63.39;100753.19;146617;572;46011;-79
2022/11/20 02:49:02;;;;;;;;;5.00;4.00;;;;;20.62;64.09;100753.19;146614;572;46016;-75
2022/11/20 02:52:11;;;;;;;;;5.00;5.00;;;;;20.66;62.62;100738.31;146617;632;46010;-76
2022/11/20 02:55:16;;;;;;;;;;;;;;;;;;;;;
2022/11/20 02:58:09;;;;;;;;;4.00;4.00;;;;;20.73;64.02;100729.59;146622;580;46012;-75
2022/11/20 03:01:13;;;;;;;;;5.33;3.00;;;;;19.73;62.84;100577.56;146615;595;46016;-75
2022/11/20 03:04:20;;;;;;;;;3.67;3.67;;;;;20.72;64.76;100725.22;146620;597;46021;-74
2022/11/20 03:07:37;;;;;;;;;;;;;;;;;;;;;
2022/11/20 03:10:36;;;;;;;;;2.00;2.00;;;;;20.70;63.78;100722.53;146620;565;46021;-77
2022/11/20 03:13:33;;;;;;;;;7.75;6.00;;;;;20.70;63.71;100729.56;146612;633;46016;-81
2022/11/20 03:16:36;;;;;;;;;4.67;4.67;;;;;20.64;66.13;100737.41;146619;608;47010;-76
2022/11/20 03:19:31;;;;;;;;;4.00;4.00;;;;;20.65;65.12;100737.41;146617;587;46918;-77
2022/11/20 03:22:25;;;;;;;;;5.33;5.00;;;;;20.64;65.28;100733.03;146614;609;47010;-76
2022/11/20 03:25:28;;;;;;;;;6.00;5.67;;;;;20.59;65.13;100721.56;146615;611;46012;-77
2022/11/20 03:28:28;;;;;;;;;5.67;4.67;;;;;20.61;65.37;100730.34;146616;614;47010;-77
2022/11/20 03:31:28;;;;;;;;;7.00;6.00;;;;;20.58;66.44;100722.41;146617;576;46012;-79
2022/11/20 03:34:32;;;;;;;;;5.33;3.33;;;;;20.55;66.29;100709.22;146616;573;46020;-79
2022/11/20 03:37:28;;;;;;;;;5.67;4.33;;;;;19.42;66.20;100514.03;146611;633;48012;-78
2022/11/20 03:40:26;;;;;;;;;5.00;3.67;;;;;20.50;65.95;100701.25;146620;590;46020;-77
2022/11/20 03:43:18;;;;;;;;;4.33;3.33;;;;;20.51;67.25;100707.41;146613;589;47014;-79
2022/11/20 03:46:22;;;;;;;;;4.00;3.00;;;;;20.50;65.96;100706.53;146619;582;46021;-80
2022/11/20 03:49:20;;;;;;;;;4.00;3.00;;;;;20.52;66.52;100703.91;146609;578;47917;-75
2022/11/20 03:52:17;;;;;;;;;6.00;4.33;;;;;20.54;65.78;100704.81;146615;618;46012;-76
2022/11/20 03:55:30;;;;;;;;;5.00;4.00;;;;;20.49;65.48;100693.31;146615;603;47012;-78
2022/11/20 03:58:28;;;;;;;;;4.00;3.00;;;;;20.50;65.21;100688.09;146618;563;47010;-76
2022/11/20 04:01:42;;;;;;;;;10.00;5.33;;;;;20.47;66.83;100684.53;146614;576;46017;-80
2022/11/20 04:04:58;;;;;;;;;;;;;;;;;;;;;
2022/11/20 04:08:04;;;;;;;;;4.00;4.00;;;;;17.96;66.03;100246.91;146616;641;46017;-80
2022/11/20 04:11:26;;;;;;;;;5.00;3.00;;;;;20.49;64.27;100675.75;146618;621;46020;-76
2022/11/20 04:14:27;;;;;;;;;4.33;4.00;;;;;20.44;65.57;100668.69;146615;578;46016;-73
2022/11/20 04:17:23;;;;;;;;;6.00;4.00;;;;;20.53;64.49;100668.84;146618;566;46010;-75
2022/11/20 04:20:20;;;;;;;;;6.33;4.67;;;;;20.51;64.79;100670.53;146615;605;46012;-74
2022/11/20 04:23:26;;;;;;;;;4.00;3.00;;;;;20.53;64.05;100668.84;146613;594;46021;-73
2022/11/20 04:26:26;;;;;;;;;7.67;4.67;;;;;20.57;63.89;100665.34;146612;650;46917;-76
2022/11/20 04:29:20;;;;;;;;;6.00;4.67;;;;;20.58;64.74;100655.69;146620;580;46020;-73
2022/11/20 04:32:12;;;;;;;;;6.33;4.00;;;;;20.57;64.32;100659.19;146614;609;47012;-80
2022/11/20 04:35:04;;;;;;;;;6.33;4.00;;;;;20.54;63.91;100649.50;146617;571;46020;-78
2022/11/20 04:37:57;;;;;;;;;4.33;4.00;;;;;20.58;63.07;100651.28;146614;684;47014;-77
2022/11/20 04:40:49;;;;;;;;;5.33;3.00;;;;;20.55;62.87;100653.91;146614;635;46010;-77
2022/11/20 04:43:41;;;;;;;;;3.67;2.33;;;;;20.57;62.81;100649.53;146612;614;46016;-77
2022/11/20 04:46:47;;;;;;;;;7.00;5.00;;;;;20.58;62.92;100655.69;146618;594;46021;-77
2022/11/20 04:49:46;;;;;;;;;6.00;4.33;;;;;20.58;62.56;100634.63;146612;591;48016;-77
2022/11/20 04:52:40;;;;;;;;;5.33;3.67;;;;;20.58;61.87;100630.22;146614;627;47011;-78
2022/11/20 04:55:43;;;;;;;;;8.33;5.00;;;;;20.58;61.79;100643.41;146611;611;46032;-76
2022/11/20 04:58:50;;;;;;;;;7.33;4.67;;;;;20.61;62.03;100660.97;146619;577;46020;-79
2022/11/20 05:01:43;;;;;;;;;8.00;6.00;;;;;20.62;61.80;100654.84;146616;667;46016;-74
2022/11/20 05:04:36;;;;;;;;;5.67;3.33;;;;;20.64;61.70;100656.63;146618;621;46010;-73
2022/11/20 05:07:44;;;;;;;;;;;;;;;;;;;;;
2022/11/20 05:10:39;;;;;;;;;4.33;4.00;;;;;20.69;61.63;100670.72;146616;635;47012;-74
2022/11/20 05:13:33;;;;;;;;;8.33;5.33;;;;;20.70;61.53;100663.69;146613;607;46016;-81
2022/11/20 05:16:31;;;;;;;;;4.33;2.67;;;;;20.71;61.67;100673.38;146619;618;46021;-74
2022/11/20 05:19:27;;;;;;;;;8.33;3.00;;;;;20.66;62.79;100661.91;146616;577;47014;-74
2022/11/20 05:22:19;;;;;;;;;8.50;6.50;;;;;20.63;63.05;100665.41;146615;652;47010;-76
2022/11/20 05:25:35;;;;;;;;;5.33;4.00;;;;;18.12;63.21;100220.88;146612;613;47016;-78
2022/11/20 05:28:39;;;;;;;;;6.67;2.67;;;;;20.57;62.51;100652.19;146619;601;46010;-80
2022/11/20 05:31:37;;;;;;;;;9.00;4.33;;;;;20.53;63.40;100661.81;146602;585;47012;-76
2022/11/20 05:34:29;;;;;;;;;9.00;4.00;;;;;20.55;62.70;100659.16;146605;671;46010;-75
2022/11/20 05:37:27;;;;;;;;;8.67;6.00;;;;;20.59;62.38;100681.16;146599;637;47014;-80
2022/11/20 05:40:37;;;;;;;;;8.00;3.00;;;;;20.62;62.41;100675.91;146606;614;46020;-77
2022/11/20 05:43:33;;;;;;;;;7.00;4.67;;;;;20.61;61.92;100667.13;146603;590;46016;-73
2022/11/20 05:46:36;;;;;;;;;11.00;4.00;;;;;20.66;61.33;100680.38;146606;598;47010;-77
2022/11/20 05:49:38;;;;;;;;;8.00;4.00;;;;;20.67;61.04;100672.47;146604;660;47014;-77
2022/11/20 05:52:42;;;;;;;;;5.00;3.33;;;;;20.72;60.66;100670.75;146605;577;46011;-76
2022/11/20 05:55:38;;;;;;;;;4.00;3.33;;;;;20.77;61.11;100671.66;146599;667;47014;-78
2022/11/20 05:58:37;;;;;;;;;5.67;5.33;;;;;20.84;60.71;100669.06;146606;626;46020;-78
2022/11/20 06:01:35;;;;;;;;;5.67;4.67;;;;;20.89;60.46;100681.44;146603;662;47012;-77
2022/11/20 06:04:30;;;;;;;;;7.00;4.67;;;;;20.93;60.23;100684.97;146610;586;46010;-77
2022/11/20 06:07:23;;;;;;;;;10.67;5.00;;;;;21.02;59.96;100681.53;146603;607;46916;-75
2022/11/20 06:10:20;;;;;;;;;5.33;5.33;;;;;21.10;60.31;100675.47;146603;565;47010;-75
2022/11/20 06:13:12;;;;;;;;;7.00;3.33;;;;;21.21;59.88;100672.88;146605;617;47012;-77
2022/11/20 06:16:07;;;;;;;;;9.00;6.00;;;;;21.25;59.45;100672.06;146605;599;47010;-75
2022/11/20 06:18:59;;;;;;;;;11.00;6.75;;;;;21.31;59.02;100671.19;146601;563;46012;-76
2022/11/20 06:21:59;;;;;;;;;9.67;6.33;;;;;21.30;58.89;100678.22;146606;637;46021;-76
2022/11/20 06:25:05;;;;;;;;;6.67;4.00;;;;;21.37;58.85;100681.81;146606;576;46016;-81
2022/11/20 06:28:01;;;;;;;;;8.67;6.00;;;;;21.49;59.08;100683.66;146607;597;46013;-81
2022/11/20 06:31:02;;;;;;;;;5.67;4.00;;;;;21.50;58.27;100686.31;146602;582;47014;-79
2022/11/20 06:34:00;;;;;;;;;8.67;6.33;;;;;21.43;58.40;100676.56;146617;608;46029;-79
2022/11/20 06:36:53;;;;;;;;;11.33;6.33;;;;;21.41;58.85;100684.50;146609;681;46915;-81
2022/11/20 06:39:54;;;;;;;;;7.00;5.33;;;;;21.43;58.96;100690.69;146613;569;46020;-78
2022/11/20 06:42:59;;;;;;;;;7.33;6.33;;;;;21.43;58.68;100682.75;146609;574;46016;-77
2022/11/20 06:46:01;;;;;;;;;7.67;6.00;;;;;21.41;58.62;100694.16;146615;586;46021;-76
2022/11/20 06:49:06;;;;;;;;;;;;;;;;;;;;;
2022/11/20 06:52:08;;;;;;;;;12.33;6.67;;;;;21.43;58.68;100718.78;146613;592;46021;-79
2022/11/20 06:55:22;;;;;;;;;;;;;;;;;;;;;
2022/11/20 06:58:26;;;;;;;;;6.00;4.00;;;;;21.45;59.12;100712.66;146614;580;47010;-83
2022/11/20 07:01:24;;;;;;;;;10.33;6.00;;;;;21.47;58.86;100709.16;146610;569;46016;-81
2022/11/20 07:04:28;;;;;;;;;8.67;7.00;;;;;21.45;58.87;100710.00;146610;604;46020;-76
2022/11/20 07:07:36;;;;;;;;;5.67;4.33;;;;;21.48;58.86;100721.47;146609;564;47012;-74
2022/11/20 07:10:30;;;;;;;;;11.33;5.00;;;;;21.49;58.79;100708.28;146613;613;47012;-74
2022/11/20 07:13:24;;;;;;;;;8.00;8.00;;;;;21.50;59.14;100715.34;146609;570;46017;-84
2022/11/20 07:16:22;;;;;;;;;7.00;6.00;;;;;21.55;58.93;100703.03;146614;571;46020;-81
2022/11/20 07:19:31;;;;;;;;;7.33;7.00;;;;;19.27;58.23;100291.28;146610;573;47014;-77
2022/11/20 07:22:26;;;;;;;;;7.33;7.00;;;;;21.65;58.29;100685.50;146612;631;47010;-82
2022/11/20 07:25:37;;;;;;;;;7.33;6.33;;;;;21.62;58.24;100682.84;146611;641;46016;-81
2022/11/20 07:28:40;;;;;;;;;11.33;7.00;;;;;19.34;57.92;100289.59;146613;581;47010;-81
2022/11/20 07:31:46;;;;;;;;;;;;;;;;;;;;;
2022/11/20 07:34:47;;;;;;;;;8.00;6.33;;;;;21.76;58.39;100694.34;146614;569;47010;-78
2022/11/20 07:37:48;;;;;;;;;14.33;7.00;;;;;21.82;58.00;100694.37;146613;570;46016;-78
2022/11/20 07:40:49;;;;;;;;;11.00;9.00;;;;;21.91;58.09;100689.16;146615;685;47010;-79
2022/11/20 07:43:42;;;;;;;;;6.33;5.33;;;;;22.03;57.93;100698.00;146613;582;46013;-77
2022/11/20 07:46:37;;;;;;;;;10.50;8.25;;;;;22.08;57.18;100706.81;146617;673;46029;-78
2022/11/20 07:49:33;;;;;;;;;9.00;6.00;;;;;22.06;57.20;100704.19;146611;608;46015;-77
2022/11/20 07:52:32;;;;;;;;;11.33;6.00;;;;;21.98;57.48;100697.97;146614;600;47012;-78
2022/11/20 07:55:27;;;;;;;;;10.33;7.67;;;;;21.90;57.54;100707.66;146612;596;46032;-80
2022/11/20 07:58:29;;;;;;;;;10.75;7.50;;;;;21.86;58.00;100703.19;146616;598;46020;-76
2022/11/20 08:01:21;;;;;;;;;12.00;6.67;;;;;21.83;58.49;100705.81;146614;571;47012;-77
2022/11/20 08:04:25;;;;;;;;;8.00;5.67;;;;;21.84;58.74;100704.97;146620;571;46011;-78
2022/11/20 08:07:25;;;;;;;;;9.00;8.67;;;;;21.85;58.74;100704.97;146610;564;46016;-77
2022/11/20 08:10:30;;;;;;;;;11.00;7.00;;;;;21.86;58.60;100705.84;146617;684;46020;-77
2022/11/20 08:16:39;;;;;;;;;9.00;9.00;;;;;21.80;58.56;100692.62;146614;570;47010;-76
2022/11/20 08:19:31;;;;;;;;;10.67;6.67;;;;;21.81;58.59;100700.56;146615;618;46016;-77
2022/11/20 08:22:33;;;;;;;;;8.33;5.67;;;;;21.88;58.16;100694.41;146618;622;46020;-78
2022/11/20 08:25:40;;;;;;;;;;;;;;;;;;;;;
2022/11/20 08:28:33;;;;;;;;;8.00;4.00;;;;;21.97;58.15;100685.66;146617;609;46021;-78
2022/11/20 08:31:48;;;;;;;;;11.00;7.33;;;;;21.86;58.50;100684.72;146598;570;48012;-76
2022/11/20 08:34:52;;;;;;;;;;;;;;;;;;;;;
2022/11/20 08:37:52;;;;;;;;;13.33;7.67;;;;;21.82;58.88;100688.22;146602;594;46016;-80
2022/11/20 08:41:23;;;;;;;;;10.00;7.00;;;;;21.87;59.39;100694.44;146607;662;46020;-77
2022/11/20 08:44:06;;;;;;;;;8.00;5.00;;;;;21.83;59.53;100685.59;146598;598;46016;-76
2022/11/20 08:47:14;;;;;;;;;13.67;6.00;;;;;21.79;59.56;100677.66;146603;602;48020;-81
2022/11/20 08:50:24;;;;;;;;;9.33;8.00;;;;;21.72;59.24;100666.19;146602;629;46918;-80
2022/11/20 08:53:21;;;;;;;;;11.75;7.00;;;;;21.65;59.86;100667.03;146604;586;47010;-76
2022/11/20 08:56:14;;;;;;;;;8.25;6.00;;;;;21.61;60.12;100678.44;146600;641;46037;-78
2022/11/20 08:59:13;;;;;;;;;9.67;5.67;;;;;21.62;59.84;100674.91;146606;581;46020;-70
2022/11/20 09:02:07;;;;;;;;;12.67;7.67;;;;;21.70;59.87;100670.56;146604;624;46016;-78
2022/11/20 09:05:06;;;;;;;;;9.00;5.00;;;;;20.88;60.69;100515.41;146601;657;47010;-77
2022/11/20 09:08:05;;;;;;;;;9.33;6.00;;;;;21.82;60.44;100675.91;146604;618;47012;-78
2022/11/20 09:11:00;;;;;;;;;6.00;5.00;;;;;21.83;60.67;100667.09;146607;613;46011;-80
2022/11/20 09:14:06;;;;;;;;;10.00;7.67;;;;;21.87;60.92;100662.75;146603;636;47014;-76
2022/11/20 09:17:14;;;;;;;;;12.67;7.00;;;;;19.50;59.91;100246.81;146607;605;46020;-79
2022/11/20 09:20:17;;;;;;;;;12.25;6.50;;;;;21.93;60.15;100660.09;146604;620;46918;-77
2022/11/20 09:23:19;;;;;;;;;7.67;6.00;;;;;21.91;61.27;100660.13;146606;569;46020;-78
2022/11/20 09:26:20;;;;;;;;;6.00;6.00;;;;;21.91;61.01;100654.84;146603;611;47012;-75
2022/11/20 09:29:18;;;;;;;;;12.00;6.33;;;;;21.93;61.32;100641.63;146604;604;47012;-77
2022/11/20 09:32:41;;;;;;;;;7.33;5.00;;;;;19.68;60.58;100245.19;146603;569;47012;-77
2022/11/20 09:35:43;;;;;;;;;10.67;6.00;;;;;22.08;60.38;100628.47;146604;569;47010;-77
2022/11/20 09:38:39;;;;;;;;;6.00;5.00;;;;;22.18;60.01;100625.88;146604;690;46012;-78
2022/11/20 09:42:28;;;;;;;;;8.00;6.00;;;;;22.28;59.85;100611.84;146602;654;47010;-78
2022/11/20 09:45:56;;;;;;;;;9.00;7.33;;;;;22.56;59.33;100623.31;146598;572;47012;-78
2022/11/20 09:49:27;;;;;;;;;12.00;8.33;;;;;20.46;58.55;100201.66;146606;564;46021;-78
2022/11/20 09:52:51;;;;;;;;;14.50;9.50;;;;;23.13;57.97;100605.69;146603;614;46016;-79
2022/11/20 09:56:08;;;;;;;;;43.50;35.00;;;;;23.38;57.51;100609.13;146602;611;47011;-79
2022/11/20 09:59:18;;;;;;;;;7.67;6.00;;;;;23.50;55.87;100605.56;146603;617;47012;-79
2022/11/20 10:02:45;;;;;;;;;11.67;8.33;;;;;21.22;56.71;100193.00;146606;565;46020;-76
2022/11/20 10:05:58;;;;;;;;;9.00;5.00;;;;;23.78;56.71;100601.09;146603;640;47014;-82
2022/11/20 10:09:05;;;;;;;;;13.33;7.33;;;;;24.02;56.18;100593.88;146605;590;46020;-76
2022/11/20 10:12:37;;;;;;;;;11.00;6.00;;;;;24.26;55.41;100591.06;146604;569;46016;-80
2022/11/20 10:16:24;;;;;;;;;9.33;6.00;;;;;22.04;54.11;100203.41;146607;597;46020;-79
2022/11/20 10:19:44;;;;;;;;;8.67;7.33;;;;;24.33;55.48;100591.91;146603;656;46012;-81
2022/11/20 10:23:33;;;;;;;;;8.00;7.00;;;;;24.15;55.03;100574.38;146605;589;47010;-81
2022/11/20 10:27:01;;;;;;;;;6.00;6.00;;;;;24.13;55.46;100592.94;146604;572;46013;-83
2022/11/20 10:30:13;;;;;;;;;11.00;5.33;;;;;24.14;55.64;100596.44;146602;628;46020;-78
2022/11/20 10:33:28;;;;;;;;;9.33;6.33;;;;;24.17;55.75;100580.53;146602;613;47014;-78
2022/11/20 10:36:50;;;;;;;;;7.00;5.33;;;;;24.19;56.00;100574.34;146602;579;47010;-78
2022/11/20 10:40:09;;;;;;;;;8.00;6.00;;;;;24.35;56.20;100561.84;146603;656;47012;-80
2022/11/20 10:43:32;;;;;;;;;8.67;6.00;;;;;24.58;56.02;100569.66;146606;591;47012;-79
2022/11/20 10:46:29;;;;;;;;;14.00;7.33;;;;;24.91;55.53;100564.06;146601;640;46016;-78
2022/11/20 10:49:27;;;;;;;;;10.33;6.00;;;;;25.10;53.38;100569.13;146602;606;47021;-80
2022/11/20 10:52:55;;;;;;;;;8.67;5.00;;;;;25.07;53.86;100563.84;146605;610;46012;-77
2022/11/20 10:55:58;;;;;;;;;18.33;11.00;;;;;25.03;53.50;100553.31;146606;594;46020;-79
2022/11/20 10:59:37;;;;;;;;;7.33;5.00;;;;;23.84;53.64;100346.88;146606;596;46917;-80
2022/11/20 11:02:47;;;;;;;;;9.67;6.00;;;;;24.92;52.98;100539.28;146605;594;46021;-79
2022/11/20 11:05:55;;;;;;;;;7.00;5.67;;;;;24.69;53.80;100547.47;146603;623;47012;-82
2022/11/20 11:08:47;;;;;;;;;7.67;5.67;;;;;24.36;54.31;100544.19;146606;585;46020;-81
2022/11/20 11:11:45;;;;;;;;;14.00;7.33;;;;;24.23;55.25;100529.28;146601;615;46016;-77
2022/11/20 11:14:50;;;;;;;;;10.33;8.00;;;;;24.40;55.58;100524.72;146607;662;46020;-82
2022/11/20 11:17:55;;;;;;;;;12.33;7.00;;;;;24.61;54.24;100528.97;146604;564;46013;-79
2022/11/20 11:21:05;;;;;;;;;;;;;;;;;;;;;
2022/11/20 11:24:10;;;;;;;;;11.33;7.00;;;;;24.71;52.97;100543.91;146603;662;47015;-79
2022/11/20 11:27:21;;;;;;;;;9.67;7.00;;;;;24.78;52.88;100529.69;146606;572;47010;-78
2022/11/20 11:30:32;;;;;;;;;8.67;6.67;;;;;24.80;52.98;100538.53;146604;566;46014;-80
2022/11/20 11:33:34;;;;;;;;;13.33;8.00;;;;;24.80;53.17;100541.19;146605;625;46021;-81
2022/11/20 11:36:28;;;;;;;;;11.67;6.67;;;;;24.79;52.41;100542.06;146602;611;47014;-80
2022/11/20 11:39:23;;;;;;;;;9.33;6.00;;;;;24.77;53.65;100535.91;146603;600;47010;-80
2022/11/20 11:42:23;;;;;;;;;8.00;6.00;;;;;24.71;53.64;100521.84;146607;625;46918;-80
2022/11/20 11:45:41;;;;;;;;;;;;;;;;;;;;;
2022/11/20 11:48:46;;;;;;;;;10.33;7.00;;;;;24.34;53.53;100512.41;146607;619;46012;-79
2022/11/20 11:52:04;;;;;;;;;10.33;8.00;;;;;24.22;54.17;100509.84;146605;646;46010;-81
2022/11/20 11:55:10;;;;;;;;;10.00;8.00;;;;;24.11;53.74;100509.97;146603;578;46013;-78
2022/11/20 11:58:34;;;;;;;;;7.00;6.00;;;;;23.98;54.30;100505.63;146610;612;46010;-79
2022/11/20 12:01:51;;;;;;;;;13.67;10.33;;;;;23.71;54.56;100512.88;146602;638;47015;-77
2022/11/20 12:05:03;;;;;;;;;17.00;12.50;;;;;23.42;55.49;100517.38;146603;605;46020;-79
2022/11/20 12:08:40;;;;;;;;;8.00;6.33;;;;;23.18;56.13;100511.34;146601;573;46034;-78
2022/11/20 12:12:23;;;;;;;;;10.67;8.00;;;;;21.68;56.48;100298.50;146603;624;47010;-79
2022/11/20 12:15:22;;;;;;;;;9.33;7.33;;;;;22.94;56.99;100545.78;146604;570;46017;-78
2022/11/20 12:18:24;;;;;;;;;13.67;6.67;;;;;22.93;57.49;100570.41;146602;724;47012;-78
2022/11/20 12:22:02;;;;;;;;;15.33;10.33;;;;;20.70;59.48;100256.19;146599;632;46012;-81
2022/11/20 12:25:35;;;;;;;;;11.00;10.00;;;;;22.69;57.62;100669.12;146604;687;47011;-80
2022/11/20 12:29:27;;;;;;;;;15.33;8.67;;;;;19.85;60.56;100280.38;146603;607;46012;-77
2022/11/20 12:32:53;;;;;;;;;14.67;13.00;;;;;21.81;60.55;100719.03;146606;689;46021;-80
2022/11/20 12:36:23;;;;;;;;;17.00;16.75;;;;;21.49;61.83;100752.25;146603;577;46016;-78
2022/11/20 12:39:45;;;;;;;;;21.50;19.75;;;;;21.21;62.17;100708.06;146603;588;46021;-80
2022/11/20 12:47:03;;;;;;;;;12.67;8.33;;;;;20.72;64.39;100722.59;146607;655;46021;-78
2022/11/20 12:50:39;;;;;;;;;;;;;;;;;;;;;
2022/11/20 12:54:03;;;;;;;;;15.00;9.33;;;;;20.39;64.02;100728.34;146605;579;46010;-76
2022/11/20 12:57:31;;;;;;;;;8.75;7.00;;;;;20.27;65.38;100729.06;146602;616;46016;-77
2022/11/20 13:00:28;;;;;;;;;6.00;5.50;;;;;20.18;66.83;100732.47;146605;574;47012;-76
2022/11/20 13:03:57;;;;;;;;;11.67;8.00;;;;;17.80;64.95;100310.50;146603;671;46034;-74
2022/11/20 13:06:50;;;;;;;;;12.67;7.33;;;;;20.16;67.65;100697.38;146604;621;47010;-74
2022/11/20 13:10:12;;;;;;;;;13.00;10.25;;;;;17.90;64.53;100301.00;146604;604;46012;-75
2022/11/20 13:13:47;;;;;;;;;12.75;7.25;;;;;19.97;66.71;100641.00;146602;598;46020;-76
2022/11/20 13:17:22;;;;;;;;;65.25;49.00;;;;;19.48;66.75;100585.13;146605;585;46013;-74
2022/11/20 13:20:23;;;;;;;;;73.00;54.25;;;;;19.59;66.87;100622.06;146608;588;47010;-75
2022/11/20 13:23:33;;;;;;;;;37.50;30.25;;;;;19.50;66.58;100621.94;146601;567;46017;-75
2022/11/20 13:26:28;;;;;;;;;47.00;35.25;;;;;19.45;66.55;100605.22;146605;606;46020;-75
2022/11/20 13:29:31;;;;;;;;;49.25;38.50;;;;;19.46;66.27;100584.19;146600;610;46016;-75
2022/11/20 13:32:35;;;;;;;;;43.50;34.00;;;;;19.55;67.37;100565.03;146615;624;46020;-76
2022/11/20 13:35:44;;;;;;;;;17.75;15.25;;;;;19.69;65.93;100531.94;146608;587;46016;-78
2022/11/20 13:38:58;;;;;;;;;23.00;16.50;;;;;19.82;66.74;100540.81;146611;571;46020;-76
2022/11/20 13:42:15;;;;;;;;;18.00;15.25;;;;;19.94;66.68;100534.81;146610;573;46016;-77
2022/11/20 13:45:28;;;;;;;;;15.75;12.25;;;;;20.09;66.16;100529.66;146615;703;46021;-76
2022/11/20 13:48:36;;;;;;;;;12.25;10.00;;;;;20.20;68.39;100519.25;146605;609;48917;-75
2022/11/20 13:51:45;;;;;;;;;11.00;9.25;;;;;20.27;67.96;100492.97;146613;564;46020;-76
2022/11/20 13:55:30;;;;;;;;;14.00;11.75;;;;;18.12;67.10;100073.94;146613;633;47012;-77
2022/11/20 13:59:01;;;;;;;;;12.25;11.50;;;;;20.70;66.88;100440.63;146613;652;46020;-77
2022/11/20 14:01:56;;;;;;;;;11.75;11.00;;;;;20.81;68.18;100423.97;146605;578;46017;-77
2022/11/20 14:04:58;;;;;;;;;9.50;9.25;;;;;20.84;66.52;100416.09;146616;579;46010;-77
2022/11/20 14:08:23;;;;;;;;;11.00;8.67;;;;;18.51;66.27;100015.69;146612;597;47013;-78
2022/11/20 14:11:31;;;;;;;;;16.00;13.50;;;;;20.92;68.03;100423.16;146614;613;46030;-79
2022/11/20 14:14:47;;;;;;;;;22.50;21.00;;;;;20.91;67.21;100425.81;146612;635;46917;-79
2022/11/20 14:17:43;;;;;;;;;22.50;20.25;;;;;20.88;67.84;100421.41;146611;583;47010;-79
2022/11/20 14:21:04;;;;;;;;;22.25;20.00;;;;;20.87;67.29;100426.66;146606;663;48917;-80
2022/11/20 14:24:35;;;;;;;;;21.00;18.25;;;;;18.34;67.32;100033.03;146614;628;46020;-79
2022/11/20 14:27:33;;;;;;;;;25.00;20.25;;;;;20.75;68.01;100445.94;146610;582;46016;-80
2022/11/20 14:31:02;;;;;;;;;23.50;22.50;;;;;18.32;66.61;100050.53;146614;607;46028;-79
2022/11/20 14:34:02;;;;;;;;;21.00;19.75;;;;;20.64;66.92;100451.13;146610;573;46915;-78
2022/11/20 14:37:20;;;;;;;;;21.75;19.25;;;;;20.61;66.91;100447.59;146611;590;47010;-79
2022/11/20 14:40:56;;;;;;;;;25.50;24.00;;;;;19.07;66.50;100212.28;146610;565;46012;-78
2022/11/20 14:44:14;;;;;;;;;39.25;31.75;;;;;20.39;68.46;100443.91;146615;596;46020;-80
2022/11/20 14:47:25;;;;;;;;;39.50;33.25;;;;;20.32;68.30;100440.37;146612;693;47014;-81
2022/11/20 14:50:32;;;;;;;;;33.75;31.00;;;;;19.81;69.06;100350.53;146615;583;46020;-81